Aviation Digital Data Service (ADDS)

Output produced by TAFs form (0954 UTC 22 September 2017)
found at http://www.aviationweather.gov/adds/tafs/
 
METAR text: LYBE 220930Z 29014KT 9999 BKN026 14/10 Q1018 NOSIG
Conditions at: LYBE (BELGRADE/SURCIN , CS) observed 0930 UTC 22 September 2017
Temperature: 14.0°C (57°F)
Dewpoint: 10.0°C (50°F) [RH = 77%]
Pressure (altimeter): 30.06 inches Hg (1018.0 mb)
Winds: from the WNW (290 degrees) at 16 MPH (14 knots; 7.3 m/s)
Visibility: 6 or more miles (10+ km)
Ceiling: 2600 feet AGL
Clouds: broken clouds at 2600 feet AGL
Weather: no significant weather observed at this time

Forecast for: LYBE (BELGRADE/SURCIN , CS)
Text: TAF LYBE 220500Z 2206/2306 28014KT 9999 SCT020 BKN033 TX15/2213Z TN10/2305Z
Forecast period: 0600 UTC 22 September 2017 to 0600 UTC 23 September 2017
Forecast type: FROM: standard forecast or significant change
Winds: from the W (280 degrees) at 16 MPH (14 knots; 7.3 m/s)
Visibility: 6 or more miles (10+ km)
Ceiling: 3300 feet AGL
Clouds: scattered clouds at 2000 feet AGL
broken clouds at 3300 feet AGL
Weather: no significant weather forecast for this period
Text: TEMPO 2209/2212 RA BKN015 BKN030
Forecast period: 0900 to 1200 UTC 22 September 2017
Forecast type: TEMPORARY: The following changes expected for less than half the time period
Ceiling: 1500 feet AGL
Clouds: broken clouds at 1500 feet AGL
broken clouds at 3000 feet AGL
Weather: RA  (rain)